sensor_id;sensor_type;location;lat;lon;timestamp;temperature;humidity
65046;DHT22;54657;52.022;5.534;2022-12-07T00:02:04;7.30;83.90
65046;DHT22;54657;52.022;5.534;2022-12-07T00:04:30;7.30;83.90
65046;DHT22;54657;52.022;5.534;2022-12-07T00:06:55;7.20;84.00
65046;DHT22;54657;52.022;5.534;2022-12-07T00:09:21;7.20;84.10
65046;DHT22;54657;52.022;5.534;2022-12-07T00:11:51;7.20;84.20
65046;DHT22;54657;52.022;5.534;2022-12-07T00:14:17;7.20;84.10
65046;DHT22;54657;52.022;5.534;2022-12-07T00:16:43;7.20;84.10
65046;DHT22;54657;52.022;5.534;2022-12-07T00:19:11;7.20;84.00
65046;DHT22;54657;52.022;5.534;2022-12-07T00:21:36;7.20;84.00
65046;DHT22;54657;52.022;5.534;2022-12-07T00:24:03;7.30;83.90
65046;DHT22;54657;52.022;5.534;2022-12-07T00:26:35;7.30;83.80
65046;DHT22;54657;52.022;5.534;2022-12-07T00:29:04;7.30;83.70
65046;DHT22;54657;52.022;5.534;2022-12-07T00:31:36;7.20;83.70
65046;DHT22;54657;52.022;5.534;2022-12-07T00:34:07;7.20;83.80
65046;DHT22;54657;52.022;5.534;2022-12-07T00:36:36;7.20;83.80
65046;DHT22;54657;52.022;5.534;2022-12-07T00:39:02;7.20;83.70
65046;DHT22;54657;52.022;5.534;2022-12-07T00:41:29;7.10;83.80
65046;DHT22;54657;52.022;5.534;2022-12-07T00:43:55;7.20;83.80
65046;DHT22;54657;52.022;5.534;2022-12-07T00:46:21;7.20;83.70
65046;DHT22;54657;52.022;5.534;2022-12-07T00:48:48;7.20;83.60
65046;DHT22;54657;52.022;5.534;2022-12-07T00:51:15;7.20;83.60
65046;DHT22;54657;52.022;5.534;2022-12-07T00:53:41;7.20;83.60
65046;DHT22;54657;52.022;5.534;2022-12-07T00:56:19;7.20;83.70
65046;DHT22;54657;52.022;5.534;2022-12-07T01:01:21;7.10;83.60
65046;DHT22;54657;52.022;5.534;2022-12-07T01:03:47;7.00;83.80
65046;DHT22;54657;52.022;5.534;2022-12-07T01:06:17;7.00;83.90
65046;DHT22;54657;52.022;5.534;2022-12-07T01:08:43;7.00;83.90
65046;DHT22;54657;52.022;5.534;2022-12-07T01:11:12;7.10;83.80
65046;DHT22;54657;52.022;5.534;2022-12-07T01:13:39;7.00;83.70
65046;DHT22;54657;52.022;5.534;2022-12-07T01:16:06;7.00;83.80
65046;DHT22;54657;52.022;5.534;2022-12-07T01:18:35;7.00;83.80
65046;DHT22;54657;52.022;5.534;2022-12-07T01:21:09;6.90;83.90
65046;DHT22;54657;52.022;5.534;2022-12-07T01:23:35;6.90;83.90
65046;DHT22;54657;52.022;5.534;2022-12-07T01:26:04;6.90;83.80
65046;DHT22;54657;52.022;5.534;2022-12-07T01:28:30;6.80;84.00
65046;DHT22;54657;52.022;5.534;2022-12-07T01:30:58;6.80;84.30
65046;DHT22;54657;52.022;5.534;2022-12-07T01:33:26;6.80;84.40
65046;DHT22;54657;52.022;5.534;2022-12-07T01:35:51;6.80;84.20
65046;DHT22;54657;52.022;5.534;2022-12-07T01:38:17;6.80;84.00
65046;DHT22;54657;52.022;5.534;2022-12-07T01:40:42;6.80;83.90
65046;DHT22;54657;52.022;5.534;2022-12-07T01:43:18;6.70;84.00
65046;DHT22;54657;52.022;5.534;2022-12-07T01:45:44;6.70;83.90
65046;DHT22;54657;52.022;5.534;2022-12-07T01:48:12;6.70;83.90
65046;DHT22;54657;52.022;5.534;2022-12-07T01:50:39;6.80;83.90
65046;DHT22;54657;52.022;5.534;2022-12-07T01:53:06;6.70;83.80
65046;DHT22;54657;52.022;5.534;2022-12-07T01:55:37;6.70;83.80
65046;DHT22;54657;52.022;5.534;2022-12-07T01:58:03;6.60;83.90
65046;DHT22;54657;52.022;5.534;2022-12-07T02:00:29;6.70;83.90
65046;DHT22;54657;52.022;5.534;2022-12-07T02:03:00;6.70;83.90
65046;DHT22;54657;52.022;5.534;2022-12-07T02:05:28;6.70;83.70
65046;DHT22;54657;52.022;5.534;2022-12-07T02:07:55;6.60;83.60
65046;DHT22;54657;52.022;5.534;2022-12-07T02:10:25;6.60;83.80
65046;DHT22;54657;52.022;5.534;2022-12-07T02:12:56;6.60;83.80
65046;DHT22;54657;52.022;5.534;2022-12-07T02:18:09;6.50;83.80
65046;DHT22;54657;52.022;5.534;2022-12-07T02:26:30;6.50;83.80
65046;DHT22;54657;52.022;5.534;2022-12-07T02:31:43;6.50;83.90
65046;DHT22;54657;52.022;5.534;2022-12-07T02:34:28;6.40;83.90
65046;DHT22;54657;52.022;5.534;2022-12-07T02:40:45;6.30;83.90
65046;DHT22;54657;52.022;5.534;2022-12-07T02:45:40;6.40;83.90
65046;DHT22;54657;52.022;5.534;2022-12-07T02:48:08;6.40;83.90
65046;DHT22;54657;52.022;5.534;2022-12-07T02:50:35;6.50;83.80
65046;DHT22;54657;52.022;5.534;2022-12-07T02:53:00;6.50;83.80
65046;DHT22;54657;52.022;5.534;2022-12-07T02:55:33;6.50;83.70
65046;DHT22;54657;52.022;5.534;2022-12-07T02:58:12;6.50;83.60
65046;DHT22;54657;52.022;5.534;2022-12-07T03:03:37;6.50;83.60
65046;DHT22;54657;52.022;5.534;2022-12-07T03:06:15;6.50;83.60
65046;DHT22;54657;52.022;5.534;2022-12-07T03:08:51;6.60;83.50
65046;DHT22;54657;52.022;5.534;2022-12-07T03:11:32;6.60;83.40
65046;DHT22;54657;52.022;5.534;2022-12-07T03:14:13;6.60;83.30
65046;DHT22;54657;52.022;5.534;2022-12-07T03:17:01;6.60;83.40
65046;DHT22;54657;52.022;5.534;2022-12-07T03:19:31;6.60;83.60
65046;DHT22;54657;52.022;5.534;2022-12-07T03:22:00;6.60;83.60
65046;DHT22;54657;52.022;5.534;2022-12-07T03:24:31;6.60;83.60
65046;DHT22;54657;52.022;5.534;2022-12-07T03:27:04;6.70;83.50
65046;DHT22;54657;52.022;5.534;2022-12-07T03:29:37;6.70;83.40
65046;DHT22;54657;52.022;5.534;2022-12-07T03:32:08;6.70;83.50
65046;DHT22;54657;52.022;5.534;2022-12-07T03:34:47;6.70;83.50
65046;DHT22;54657;52.022;5.534;2022-12-07T03:37:23;6.60;83.50
65046;DHT22;54657;52.022;5.534;2022-12-07T03:42:17;6.60;83.90
65046;DHT22;54657;52.022;5.534;2022-12-07T03:44:43;6.60;83.90
65046;DHT22;54657;52.022;5.534;2022-12-07T03:47:31;6.60;83.80
65046;DHT22;54657;52.022;5.534;2022-12-07T03:50:07;6.70;83.70
65046;DHT22;54657;52.022;5.534;2022-12-07T03:52:43;6.70;83.60
65046;DHT22;54657;52.022;5.534;2022-12-07T03:55:16;6.70;83.60
65046;DHT22;54657;52.022;5.534;2022-12-07T03:57:43;6.80;83.50
65046;DHT22;54657;52.022;5.534;2022-12-07T04:00:11;6.70;83.40
65046;DHT22;54657;52.022;5.534;2022-12-07T04:02:37;6.80;83.20
65046;DHT22;54657;52.022;5.534;2022-12-07T04:05:03;6.80;83.10
65046;DHT22;54657;52.022;5.534;2022-12-07T04:07:29;6.80;83.10
65046;DHT22;54657;52.022;5.534;2022-12-07T04:09:55;6.80;83.00
65046;DHT22;54657;52.022;5.534;2022-12-07T04:12:21;6.80;83.00
65046;DHT22;54657;52.022;5.534;2022-12-07T04:14:47;6.90;82.90
65046;DHT22;54657;52.022;5.534;2022-12-07T04:17:13;6.90;82.90
65046;DHT22;54657;52.022;5.534;2022-12-07T04:19:38;6.80;82.90
65046;DHT22;54657;52.022;5.534;2022-12-07T04:22:04;6.80;83.00
65046;DHT22;54657;52.022;5.534;2022-12-07T04:24:30;6.80;83.20
65046;DHT22;54657;52.022;5.534;2022-12-07T04:26:55;6.80;83.20
65046;DHT22;54657;52.022;5.534;2022-12-07T04:29:21;6.70;83.20
65046;DHT22;54657;52.022;5.534;2022-12-07T04:31:48;6.80;83.20
65046;DHT22;54657;52.022;5.534;2022-12-07T04:34:15;6.80;83.10
65046;DHT22;54657;52.022;5.534;2022-12-07T04:36:41;6.80;83.10
65046;DHT22;54657;52.022;5.534;2022-12-07T04:39:09;6.80;83.00
65046;DHT22;54657;52.022;5.534;2022-12-07T04:41:38;6.80;83.00
65046;DHT22;54657;52.022;5.534;2022-12-07T04:44:04;6.80;83.00
65046;DHT22;54657;52.022;5.534;2022-12-07T04:46:33;6.90;83.00
65046;DHT22;54657;52.022;5.534;2022-12-07T04:48:58;6.90;83.00
65046;DHT22;54657;52.022;5.534;2022-12-07T04:51:28;6.90;83.00
65046;DHT22;54657;52.022;5.534;2022-12-07T04:53:55;6.90;83.00
65046;DHT22;54657;52.022;5.534;2022-12-07T04:56:22;6.90;83.00
65046;DHT22;54657;52.022;5.534;2022-12-07T04:58:48;6.90;83.00
65046;DHT22;54657;52.022;5.534;2022-12-07T05:01:16;6.90;83.00
65046;DHT22;54657;52.022;5.534;2022-12-07T05:03:42;6.90;82.90
65046;DHT22;54657;52.022;5.534;2022-12-07T05:06:09;6.90;82.90
65046;DHT22;54657;52.022;5.534;2022-12-07T05:08:35;6.90;82.90
65046;DHT22;54657;52.022;5.534;2022-12-07T05:11:02;6.90;82.90
65046;DHT22;54657;52.022;5.534;2022-12-07T05:13:28;6.90;82.90
65046;DHT22;54657;52.022;5.534;2022-12-07T05:15:54;6.90;82.90
65046;DHT22;54657;52.022;5.534;2022-12-07T05:18:19;6.80;82.80
65046;DHT22;54657;52.022;5.534;2022-12-07T05:20:45;6.90;83.00
65046;DHT22;54657;52.022;5.534;2022-12-07T05:23:11;6.90;83.00
65046;DHT22;54657;52.022;5.534;2022-12-07T05:25:37;6.90;83.00
65046;DHT22;54657;52.022;5.534;2022-12-07T05:28:04;6.80;82.90
65046;DHT22;54657;52.022;5.534;2022-12-07T05:30:30;6.80;83.00
65046;DHT22;54657;52.022;5.534;2022-12-07T05:32:56;6.80;82.90
65046;DHT22;54657;52.022;5.534;2022-12-07T05:35:22;6.80;82.90
65046;DHT22;54657;52.022;5.534;2022-12-07T05:37:47;6.80;82.80
65046;DHT22;54657;52.022;5.534;2022-12-07T05:40:14;6.80;82.80
65046;DHT22;54657;52.022;5.534;2022-12-07T05:42:40;6.80;82.80
65046;DHT22;54657;52.022;5.534;2022-12-07T05:45:07;6.80;82.80
65046;DHT22;54657;52.022;5.534;2022-12-07T05:47:33;6.80;82.80
65046;DHT22;54657;52.022;5.534;2022-12-07T05:49:58;6.80;82.80
65046;DHT22;54657;52.022;5.534;2022-12-07T05:52:24;6.80;82.80
65046;DHT22;54657;52.022;5.534;2022-12-07T05:54:49;6.70;82.60
65046;DHT22;54657;52.022;5.534;2022-12-07T05:57:15;6.70;82.60
65046;DHT22;54657;52.022;5.534;2022-12-07T05:59:41;6.70;82.60
65046;DHT22;54657;52.022;5.534;2022-12-07T06:02:09;6.70;82.60
65046;DHT22;54657;52.022;5.534;2022-12-07T06:04:38;6.70;82.60
65046;DHT22;54657;52.022;5.534;2022-12-07T06:07:04;6.70;82.70
65046;DHT22;54657;52.022;5.534;2022-12-07T06:09:31;6.70;82.80
65046;DHT22;54657;52.022;5.534;2022-12-07T06:11:57;6.60;82.60
65046;DHT22;54657;52.022;5.534;2022-12-07T06:14:42;6.70;82.60
65046;DHT22;54657;52.022;5.534;2022-12-07T06:17:08;6.60;82.50
65046;DHT22;54657;52.022;5.534;2022-12-07T06:19:34;6.60;82.60
65046;DHT22;54657;52.022;5.534;2022-12-07T06:22:01;6.60;82.60
65046;DHT22;54657;52.022;5.534;2022-12-07T06:24:26;6.60;82.60
65046;DHT22;54657;52.022;5.534;2022-12-07T06:26:52;6.60;82.60
65046;DHT22;54657;52.022;5.534;2022-12-07T06:29:18;6.60;82.60
65046;DHT22;54657;52.022;5.534;2022-12-07T06:31:44;6.60;82.60
65046;DHT22;54657;52.022;5.534;2022-12-07T06:34:12;6.60;82.60
65046;DHT22;54657;52.022;5.534;2022-12-07T06:36:38;6.60;82.40
65046;DHT22;54657;52.022;5.534;2022-12-07T06:39:05;6.60;82.50
65046;DHT22;54657;52.022;5.534;2022-12-07T06:41:31;6.60;82.50
65046;DHT22;54657;52.022;5.534;2022-12-07T06:43:56;6.50;82.60
65046;DHT22;54657;52.022;5.534;2022-12-07T06:46:22;6.50;82.60
65046;DHT22;54657;52.022;5.534;2022-12-07T06:48:48;6.50;82.70
65046;DHT22;54657;52.022;5.534;2022-12-07T06:51:14;6.50;82.70
65046;DHT22;54657;52.022;5.534;2022-12-07T06:53:39;6.50;82.60
65046;DHT22;54657;52.022;5.534;2022-12-07T06:56:05;6.50;82.30
65046;DHT22;54657;52.022;5.534;2022-12-07T06:58:31;6.50;82.40
65046;DHT22;54657;52.022;5.534;2022-12-07T07:00:56;6.50;82.50
65046;DHT22;54657;52.022;5.534;2022-12-07T07:03:22;6.50;82.50
65046;DHT22;54657;52.022;5.534;2022-12-07T07:05:48;6.50;82.40
65046;DHT22;54657;52.022;5.534;2022-12-07T07:08:14;6.50;82.40
65046;DHT22;54657;52.022;5.534;2022-12-07T07:10:39;6.50;82.40
65046;DHT22;54657;52.022;5.534;2022-12-07T07:13:05;6.50;82.40
65046;DHT22;54657;52.022;5.534;2022-12-07T07:15:31;6.40;82.40
65046;DHT22;54657;52.022;5.534;2022-12-07T07:17:57;6.40;82.50
65046;DHT22;54657;52.022;5.534;2022-12-07T07:20:23;6.40;82.50
65046;DHT22;54657;52.022;5.534;2022-12-07T07:22:49;6.40;82.60
65046;DHT22;54657;52.022;5.534;2022-12-07T07:25:15;6.40;82.50
65046;DHT22;54657;52.022;5.534;2022-12-07T07:27:41;6.30;82.50
65046;DHT22;54657;52.022;5.534;2022-12-07T07:30:07;6.30;82.60
65046;DHT22;54657;52.022;5.534;2022-12-07T07:32:33;6.30;82.60
65046;DHT22;54657;52.022;5.534;2022-12-07T07:34:58;6.20;82.60
65046;DHT22;54657;52.022;5.534;2022-12-07T07:37:24;6.20;82.60
65046;DHT22;54657;52.022;5.534;2022-12-07T07:39:50;6.20;82.60
65046;DHT22;54657;52.022;5.534;2022-12-07T07:42:15;6.20;82.50
65046;DHT22;54657;52.022;5.534;2022-12-07T07:44:41;6.20;82.50
65046;DHT22;54657;52.022;5.534;2022-12-07T07:47:07;6.20;82.50
65046;DHT22;54657;52.022;5.534;2022-12-07T07:49:32;6.20;82.50
65046;DHT22;54657;52.022;5.534;2022-12-07T07:51:58;6.20;82.40
65046;DHT22;54657;52.022;5.534;2022-12-07T07:54:23;6.10;82.30
65046;DHT22;54657;52.022;5.534;2022-12-07T07:56:49;6.10;82.50
65046;DHT22;54657;52.022;5.534;2022-12-07T07:59:15;6.10;82.40
65046;DHT22;54657;52.022;5.534;2022-12-07T08:01:40;6.10;82.50
65046;DHT22;54657;52.022;5.534;2022-12-07T08:04:06;6.10;82.60
65046;DHT22;54657;52.022;5.534;2022-12-07T08:06:31;6.00;82.60
65046;DHT22;54657;52.022;5.534;2022-12-07T08:08:57;6.00;82.60
65046;DHT22;54657;52.022;5.534;2022-12-07T08:11:23;6.00;82.70
65046;DHT22;54657;52.022;5.534;2022-12-07T08:13:49;6.00;83.30
65046;DHT22;54657;52.022;5.534;2022-12-07T08:16:15;6.00;82.70
65046;DHT22;54657;52.022;5.534;2022-12-07T08:18:41;6.00;82.60
65046;DHT22;54657;52.022;5.534;2022-12-07T08:21:09;6.00;82.60
65046;DHT22;54657;52.022;5.534;2022-12-07T08:23:35;6.10;82.70
65046;DHT22;54657;52.022;5.534;2022-12-07T08:26:06;6.00;82.70
65046;DHT22;54657;52.022;5.534;2022-12-07T08:28:32;6.10;82.60
65046;DHT22;54657;52.022;5.534;2022-12-07T08:31:06;6.20;82.50
65046;DHT22;54657;52.022;5.534;2022-12-07T08:33:33;6.20;82.30
65046;DHT22;54657;52.022;5.534;2022-12-07T08:36:10;6.30;82.40
65046;DHT22;54657;52.022;5.534;2022-12-07T08:38:37;6.30;82.30
65046;DHT22;54657;52.022;5.534;2022-12-07T08:41:05;6.30;82.40
65046;DHT22;54657;52.022;5.534;2022-12-07T08:43:31;6.30;82.30
65046;DHT22;54657;52.022;5.534;2022-12-07T08:48:32;6.50;82.10
65046;DHT22;54657;52.022;5.534;2022-12-07T08:50:58;6.50;82.20
65046;DHT22;54657;52.022;5.534;2022-12-07T08:53:24;6.50;82.10
65046;DHT22;54657;52.022;5.534;2022-12-07T08:55:50;6.60;82.00
65046;DHT22;54657;52.022;5.534;2022-12-07T08:58:15;6.60;81.90
65046;DHT22;54657;52.022;5.534;2022-12-07T09:00:41;6.70;81.80
65046;DHT22;54657;52.022;5.534;2022-12-07T09:03:07;6.70;81.80
65046;DHT22;54657;52.022;5.534;2022-12-07T09:05:33;6.80;81.80
65046;DHT22;54657;52.022;5.534;2022-12-07T09:08:00;6.80;81.70
65046;DHT22;54657;52.022;5.534;2022-12-07T09:10:26;6.80;81.70
65046;DHT22;54657;52.022;5.534;2022-12-07T09:12:52;6.80;81.90
65046;DHT22;54657;52.022;5.534;2022-12-07T09:15:18;6.80;81.90
65046;DHT22;54657;52.022;5.534;2022-12-07T09:17:43;6.80;81.70
65046;DHT22;54657;52.022;5.534;2022-12-07T09:20:09;6.90;81.80
65046;DHT22;54657;52.022;5.534;2022-12-07T09:22:35;7.00;81.70
65046;DHT22;54657;52.022;5.534;2022-12-07T09:25:02;7.00;81.70
65046;DHT22;54657;52.022;5.534;2022-12-07T09:27:28;7.00;81.60
65046;DHT22;54657;52.022;5.534;2022-12-07T09:29:53;7.10;81.60
65046;DHT22;54657;52.022;5.534;2022-12-07T09:32:19;7.10;81.50
65046;DHT22;54657;52.022;5.534;2022-12-07T09:34:44;7.20;81.40
65046;DHT22;54657;52.022;5.534;2022-12-07T09:37:10;7.30;81.40
65046;DHT22;54657;52.022;5.534;2022-12-07T09:39:39;7.30;81.40
65046;DHT22;54657;52.022;5.534;2022-12-07T09:42:05;7.20;81.40
65046;DHT22;54657;52.022;5.534;2022-12-07T09:44:32;7.30;81.60
65046;DHT22;54657;52.022;5.534;2022-12-07T09:46:58;7.30;81.70
65046;DHT22;54657;52.022;5.534;2022-12-07T09:49:27;7.30;81.80
65046;DHT22;54657;52.022;5.534;2022-12-07T09:52:18;7.40;81.90
65046;DHT22;54657;52.022;5.534;2022-12-07T09:54:47;7.40;81.70
65046;DHT22;54657;52.022;5.534;2022-12-07T09:57:13;7.50;81.90
65046;DHT22;54657;52.022;5.534;2022-12-07T09:59:39;7.50;81.70
65046;DHT22;54657;52.022;5.534;2022-12-07T10:02:39;7.60;81.70
65046;DHT22;54657;52.022;5.534;2022-12-07T10:05:10;7.60;81.50
65046;DHT22;54657;52.022;5.534;2022-12-07T10:07:37;7.60;81.70
65046;DHT22;54657;52.022;5.534;2022-12-07T10:10:12;7.60;81.70
65046;DHT22;54657;52.022;5.534;2022-12-07T10:12:56;7.70;81.60
65046;DHT22;54657;52.022;5.534;2022-12-07T10:15:22;7.70;81.30
65046;DHT22;54657;52.022;5.534;2022-12-07T10:17:52;7.70;81.60
65046;DHT22;54657;52.022;5.534;2022-12-07T10:20:19;7.80;81.70
65046;DHT22;54657;52.022;5.534;2022-12-07T10:25:22;7.90;81.30
65046;DHT22;54657;52.022;5.534;2022-12-07T10:30:24;7.80;81.10
65046;DHT22;54657;52.022;5.534;2022-12-07T10:32:49;7.80;81.40
65046;DHT22;54657;52.022;5.534;2022-12-07T10:35:29;7.90;81.50
65046;DHT22;54657;52.022;5.534;2022-12-07T10:37:58;7.90;80.90
65046;DHT22;54657;52.022;5.534;2022-12-07T10:40:31;7.80;81.20
65046;DHT22;54657;52.022;5.534;2022-12-07T10:51:59;7.80;81.30
65046;DHT22;54657;52.022;5.534;2022-12-07T10:57:18;7.90;81.10
65046;DHT22;54657;52.022;5.534;2022-12-07T11:00:00;7.90;81.00
65046;DHT22;54657;52.022;5.534;2022-12-07T11:02:57;8.00;81.00
65046;DHT22;54657;52.022;5.534;2022-12-07T11:19:20;8.30;80.40
65046;DHT22;54657;52.022;5.534;2022-12-07T11:21:58;8.30;80.50
65046;DHT22;54657;52.022;5.534;2022-12-07T11:24:36;8.30;80.80
65046;DHT22;54657;52.022;5.534;2022-12-07T11:30:08;8.20;80.70
65046;DHT22;54657;52.022;5.534;2022-12-07T11:32:44;8.20;81.20
65046;DHT22;54657;52.022;5.534;2022-12-07T11:35:33;8.30;81.10
65046;DHT22;54657;52.022;5.534;2022-12-07T11:38:17;8.30;80.80
65046;DHT22;54657;52.022;5.534;2022-12-07T11:40:49;8.40;80.70
65046;DHT22;54657;52.022;5.534;2022-12-07T11:43:31;8.30;80.80
65046;DHT22;54657;52.022;5.534;2022-12-07T11:46:08;8.30;80.80
65046;DHT22;54657;52.022;5.534;2022-12-07T11:48:39;8.30;80.70
65046;DHT22;54657;52.022;5.534;2022-12-07T11:51:09;8.30;80.80
65046;DHT22;54657;52.022;5.534;2022-12-07T11:53:40;8.40;80.90
65046;DHT22;54657;52.022;5.534;2022-12-07T11:56:20;8.40;80.70
65046;DHT22;54657;52.022;5.534;2022-12-07T11:58:59;8.40;80.50
65046;DHT22;54657;52.022;5.534;2022-12-07T12:04:17;8.40;81.40
65046;DHT22;54657;52.022;5.534;2022-12-07T12:06:45;8.40;80.50
65046;DHT22;54657;52.022;5.534;2022-12-07T12:09:17;8.40;80.80
65046;DHT22;54657;52.022;5.534;2022-12-07T12:15:32;8.40;80.60
65046;DHT22;54657;52.022;5.534;2022-12-07T12:21:10;8.50;80.40
65046;DHT22;54657;52.022;5.534;2022-12-07T12:23:59;8.50;80.30
65046;DHT22;54657;52.022;5.534;2022-12-07T12:26:32;8.50;80.20
65046;DHT22;54657;52.022;5.534;2022-12-07T12:29:03;8.50;80.70
65046;DHT22;54657;52.022;5.534;2022-12-07T12:31:40;8.50;80.60
65046;DHT22;54657;52.022;5.534;2022-12-07T12:34:30;8.50;80.20
65046;DHT22;54657;52.022;5.534;2022-12-07T12:36:56;8.50;79.90
65046;DHT22;54657;52.022;5.534;2022-12-07T12:39:21;8.50;80.10
65046;DHT22;54657;52.022;5.534;2022-12-07T12:47:01;8.50;80.10
65046;DHT22;54657;52.022;5.534;2022-12-07T12:49:36;8.40;80.00
65046;DHT22;54657;52.022;5.534;2022-12-07T12:57:31;8.60;79.40
65046;DHT22;54657;52.022;5.534;2022-12-07T13:00:09;8.50;80.00
65046;DHT22;54657;52.022;5.534;2022-12-07T13:02:52;8.50;80.00
65046;DHT22;54657;52.022;5.534;2022-12-07T13:05:21;8.50;79.80
65046;DHT22;54657;52.022;5.534;2022-12-07T13:13:28;8.60;79.80
65046;DHT22;54657;52.022;5.534;2022-12-07T13:18:41;8.70;79.30
65046;DHT22;54657;52.022;5.534;2022-12-07T13:26:17;8.70;79.50
65046;DHT22;54657;52.022;5.534;2022-12-07T13:28:48;8.80;79.80
65046;DHT22;54657;52.022;5.534;2022-12-07T13:31:48;8.90;79.70
65046;DHT22;54657;52.022;5.534;2022-12-07T13:34:31;8.90;79.20
65046;DHT22;54657;52.022;5.534;2022-12-07T13:37:01;8.90;79.40
65046;DHT22;54657;52.022;5.534;2022-12-07T13:39:28;8.80;79.00
65046;DHT22;54657;52.022;5.534;2022-12-07T13:41:58;8.50;79.20
65046;DHT22;54657;52.022;5.534;2022-12-07T13:44:27;8.30;79.50
65046;DHT22;54657;52.022;5.534;2022-12-07T13:49:52;8.00;80.60
65046;DHT22;54657;52.022;5.534;2022-12-07T13:52:29;8.00;81.30
65046;DHT22;54657;52.022;5.534;2022-12-07T13:57:34;8.10;80.80
65046;DHT22;54657;52.022;5.534;2022-12-07T14:00:01;8.20;80.70
65046;DHT22;54657;52.022;5.534;2022-12-07T14:02:32;8.30;80.60
65046;DHT22;54657;52.022;5.534;2022-12-07T14:05:24;8.30;80.40
65046;DHT22;54657;52.022;5.534;2022-12-07T14:10:54;8.40;80.50
65046;DHT22;54657;52.022;5.534;2022-12-07T14:13:35;8.40;81.10
65046;DHT22;54657;52.022;5.534;2022-12-07T14:16:02;8.40;80.50
65046;DHT22;54657;52.022;5.534;2022-12-07T14:18:39;8.50;80.80
65046;DHT22;54657;52.022;5.534;2022-12-07T14:21:21;8.50;80.80
65046;DHT22;54657;52.022;5.534;2022-12-07T14:26:34;8.50;80.70
65046;DHT22;54657;52.022;5.534;2022-12-07T14:29:37;8.50;80.80
65046;DHT22;54657;52.022;5.534;2022-12-07T14:32:34;8.60;80.60
65046;DHT22;54657;52.022;5.534;2022-12-07T14:35:10;8.50;80.50
65046;DHT22;54657;52.022;5.534;2022-12-07T14:37:37;8.60;80.80
65046;DHT22;54657;52.022;5.534;2022-12-07T14:40:04;8.60;80.80
65046;DHT22;54657;52.022;5.534;2022-12-07T14:42:30;8.60;80.70
65046;DHT22;54657;52.022;5.534;2022-12-07T14:44:57;8.60;80.70
65046;DHT22;54657;52.022;5.534;2022-12-07T14:47:23;8.60;80.60
65046;DHT22;54657;52.022;5.534;2022-12-07T14:49:49;8.60;80.70
65046;DHT22;54657;52.022;5.534;2022-12-07T14:52:18;8.60;80.50
65046;DHT22;54657;52.022;5.534;2022-12-07T14:54:45;8.60;80.60
65046;DHT22;54657;52.022;5.534;2022-12-07T14:57:10;8.50;80.60
65046;DHT22;54657;52.022;5.534;2022-12-07T14:59:36;8.60;80.70
65046;DHT22;54657;52.022;5.534;2022-12-07T15:02:02;8.60;80.60
65046;DHT22;54657;52.022;5.534;2022-12-07T15:04:27;8.60;80.60
65046;DHT22;54657;52.022;5.534;2022-12-07T15:07:01;8.60;80.40
65046;DHT22;54657;52.022;5.534;2022-12-07T15:09:26;8.60;80.50
65046;DHT22;54657;52.022;5.534;2022-12-07T15:11:52;8.60;80.50
65046;DHT22;54657;52.022;5.534;2022-12-07T15:14:18;8.50;80.40
65046;DHT22;54657;52.022;5.534;2022-12-07T15:16:43;8.60;80.40
65046;DHT22;54657;52.022;5.534;2022-12-07T15:19:27;8.50;80.30
65046;DHT22;54657;52.022;5.534;2022-12-07T15:21:53;8.50;79.90
65046;DHT22;54657;52.022;5.534;2022-12-07T15:24:19;8.50;80.40
65046;DHT22;54657;52.022;5.534;2022-12-07T15:26:45;8.40;80.30
65046;DHT22;54657;52.022;5.534;2022-12-07T15:29:11;8.40;80.30
65046;DHT22;54657;52.022;5.534;2022-12-07T15:31:37;8.40;80.30
65046;DHT22;54657;52.022;5.534;2022-12-07T15:34:03;8.40;80.10
65046;DHT22;54657;52.022;5.534;2022-12-07T15:36:31;8.40;80.10
65046;DHT22;54657;52.022;5.534;2022-12-07T15:38:57;8.40;80.10
65046;DHT22;54657;52.022;5.534;2022-12-07T15:41:23;8.30;80.20
65046;DHT22;54657;52.022;5.534;2022-12-07T15:43:49;8.20;80.30
65046;DHT22;54657;52.022;5.534;2022-12-07T15:46:35;8.20;80.30
65046;DHT22;54657;52.022;5.534;2022-12-07T15:49:01;8.20;80.30
65046;DHT22;54657;52.022;5.534;2022-12-07T15:51:27;8.10;80.40
65046;DHT22;54657;52.022;5.534;2022-12-07T15:53:53;8.10;80.50
65046;DHT22;54657;52.022;5.534;2022-12-07T15:56:19;7.90;80.60
65046;DHT22;54657;52.022;5.534;2022-12-07T15:58:46;7.90;80.90
65046;DHT22;54657;52.022;5.534;2022-12-07T16:01:16;7.80;80.90
65046;DHT22;54657;52.022;5.534;2022-12-07T16:03:43;7.70;81.10
65046;DHT22;54657;52.022;5.534;2022-12-07T16:06:09;7.70;81.10
65046;DHT22;54657;52.022;5.534;2022-12-07T16:08:34;7.80;80.90
65046;DHT22;54657;52.022;5.534;2022-12-07T16:11:04;7.80;80.80
65046;DHT22;54657;52.022;5.534;2022-12-07T16:13:30;7.90;80.50
65046;DHT22;54657;52.022;5.534;2022-12-07T16:15:56;7.90;80.90
65046;DHT22;54657;52.022;5.534;2022-12-07T16:18:21;7.90;80.90
65046;DHT22;54657;52.022;5.534;2022-12-07T16:20:50;7.90;80.30
65046;DHT22;54657;52.022;5.534;2022-12-07T16:23:15;7.80;80.20
65046;DHT22;54657;52.022;5.534;2022-12-07T16:25:41;7.80;80.30
65046;DHT22;54657;52.022;5.534;2022-12-07T16:28:07;7.80;80.30
65046;DHT22;54657;52.022;5.534;2022-12-07T16:30:33;7.90;80.30
65046;DHT22;54657;52.022;5.534;2022-12-07T16:32:59;7.80;80.30
65046;DHT22;54657;52.022;5.534;2022-12-07T16:35:24;7.80;80.20
65046;DHT22;54657;52.022;5.534;2022-12-07T16:37:50;7.80;80.10
65046;DHT22;54657;52.022;5.534;2022-12-07T16:40:15;7.80;80.10
65046;DHT22;54657;52.022;5.534;2022-12-07T16:42:41;7.80;80.10
65046;DHT22;54657;52.022;5.534;2022-12-07T16:45:07;7.70;80.20
65046;DHT22;54657;52.022;5.534;2022-12-07T16:47:32;7.70;80.30
65046;DHT22;54657;52.022;5.534;2022-12-07T16:49:58;7.70;80.30
65046;DHT22;54657;52.022;5.534;2022-12-07T16:52:23;7.70;80.30
65046;DHT22;54657;52.022;5.534;2022-12-07T16:54:49;7.70;80.30
65046;DHT22;54657;52.022;5.534;2022-12-07T16:57:16;7.60;80.10
65046;DHT22;54657;52.022;5.534;2022-12-07T16:59:42;7.60;80.10
65046;DHT22;54657;52.022;5.534;2022-12-07T17:02:11;7.60;80.00
65046;DHT22;54657;52.022;5.534;2022-12-07T17:04:36;7.60;80.00
65046;DHT22;54657;52.022;5.534;2022-12-07T17:07:08;7.60;80.00
65046;DHT22;54657;52.022;5.534;2022-12-07T17:09:33;7.60;79.90
65046;DHT22;54657;52.022;5.534;2022-12-07T17:12:00;7.60;80.00
65046;DHT22;54657;52.022;5.534;2022-12-07T17:14:26;7.50;80.00
65046;DHT22;54657;52.022;5.534;2022-12-07T17:17:10;7.50;80.00
65046;DHT22;54657;52.022;5.534;2022-12-07T17:19:35;7.40;80.10
65046;DHT22;54657;52.022;5.534;2022-12-07T17:22:01;7.40;80.10
65046;DHT22;54657;52.022;5.534;2022-12-07T17:24:26;7.40;80.20
65046;DHT22;54657;52.022;5.534;2022-12-07T17:26:52;7.40;80.10
65046;DHT22;54657;52.022;5.534;2022-12-07T17:29:18;7.40;80.20
65046;DHT22;54657;52.022;5.534;2022-12-07T17:31:46;7.40;80.10
65046;DHT22;54657;52.022;5.534;2022-12-07T17:34:13;7.30;80.00
65046;DHT22;54657;52.022;5.534;2022-12-07T17:36:39;7.30;80.10
65046;DHT22;54657;52.022;5.534;2022-12-07T17:39:14;7.30;80.10
65046;DHT22;54657;52.022;5.534;2022-12-07T17:41:40;7.30;80.00
65046;DHT22;54657;52.022;5.534;2022-12-07T17:44:25;7.30;80.00